Map

Track Data

SID SEASON NUMBER BASIN SUBBASIN NAME ISO_TIME NATURE LAT LON WMO_WIND WMO_PRES WMO_AGENCY TRACK_TYPE DIST2LAND LANDFALL IFLAG USA_AGENCY USA_ATCF_ID USA_LAT USA_LON USA_RECORD USA_STATUS USA_WIND USA_PRES USA_SSHS USA_R34_NE USA_R34_SE USA_R34_SW USA_R34_NW USA_R50_NE USA_R50_SE USA_R50_SW USA_R50_NW USA_R64_NE USA_R64_SE USA_R64_SW USA_R64_NW USA_POCI USA_ROCI USA_RMW USA_EYE TOKYO_LAT TOKYO_LON TOKYO_GRADE TOKYO_WIND TOKYO_PRES TOKYO_R50_DIR TOKYO_R50_LONG TOKYO_R50_SHORT TOKYO_R30_DIR TOKYO_R30_LONG TOKYO_R30_SHORT TOKYO_LAND CMA_LAT CMA_LON CMA_CAT CMA_WIND CMA_PRES HKO_LAT HKO_LON HKO_CAT HKO_WIND HKO_PRES NEWDELHI_LAT NEWDELHI_LON NEWDELHI_GRADE NEWDELHI_WIND NEWDELHI_PRES NEWDELHI_CI NEWDELHI_DP NEWDELHI_POCI REUNION_LAT REUNION_LON REUNION_TYPE REUNION_WIND REUNION_PRES REUNION_TNUM REUNION_CI REUNION_RMW REUNION_R34_NE REUNION_R34_SE REUNION_R34_SW REUNION_R34_NW REUNION_R50_NE REUNION_R50_SE REUNION_R50_SW REUNION_R50_NW REUNION_R64_NE REUNION_R64_SE REUNION_R64_SW REUNION_R64_NW BOM_LAT BOM_LON BOM_TYPE BOM_WIND BOM_PRES BOM_TNUM BOM_CI BOM_RMW BOM_R34_NE BOM_R34_SE BOM_R34_SW BOM_R34_NW BOM_R50_NE BOM_R50_SE BOM_R50_SW BOM_R50_NW BOM_R64_NE BOM_R64_SE BOM_R64_SW BOM_R64_NW BOM_ROCI BOM_POCI BOM_EYE BOM_POS_METHOD BOM_PRES_METHOD NADI_LAT NADI_LON NADI_CAT NADI_WIND NADI_PRES WELLINGTON_LAT WELLINGTON_LON WELLINGTON_WIND WELLINGTON_PRES DS824_LAT DS824_LON DS824_STAGE DS824_WIND DS824_PRES TD9636_LAT TD9636_LON TD9636_STAGE TD9636_WIND TD9636_PRES TD9635_LAT TD9635_LON TD9635_WIND TD9635_PRES TD9635_ROCI NEUMANN_LAT NEUMANN_LON NEUMANN_CLASS NEUMANN_WIND NEUMANN_PRES MLC_LAT MLC_LON MLC_CLASS MLC_WIND MLC_PRES USA_GUST BOM_GUST BOM_GUST_PER REUNION_GUST REUNION_GUST_PER USA_SEAHGT USA_SEARAD_NE USA_SEARAD_SE USA_SEARAD_SW USA_SEARAD_NW STORM_SPEED STORM_DIR
2006262N19069 2006 70 NI AS MUKDA 2006-09-19 06:00:00 NR 19.4000 68.7000 main 246 246 O_____________ jtwc_io IO042006 19.4000 68.7000 DB 20 1004 -3 3 275
2006262N19069 2006 70 NI AS MUKDA 2006-09-19 09:00:00 NR 19.4126 68.5350 main 259 259 P_____________ IO042006 19.4126 68.5350 DB 20 1001 -3 3 270
2006262N19069 2006 70 NI AS MUKDA 2006-09-19 12:00:00 NR 19.4000 68.4000 main 267 267 O_____________ jtwc_io IO042006 19.4000 68.4000 DB 20 999 -3 1002 130 30 2 254
2006262N19069 2006 70 NI AS MUKDA 2006-09-19 15:00:00 NR 19.3499 68.3075 main 282 282 P_____________ IO042006 19.3499 68.3075 DB 22 1000 -3 1002 130 30 2 242
2006262N19069 2006 70 NI AS MUKDA 2006-09-19 18:00:00 NR 19.3000 68.2000 main 289 289 O_____________ jtwc_io IO042006 19.3000 68.2000 DB 25 1002 -3 1003 130 30 3 257
2006262N19069 2006 70 NI AS MUKDA 2006-09-19 21:00:00 NR 19.2850 68.0150 main 305 305 P_____________ IO042006 19.2850 68.0150 DB 25 1002 -3 1003 130 30 4 270
2006262N19069 2006 70 NI AS MUKDA 2006-09-20 00:00:00 NR 19.3000 67.8000 main 320 320 O_____________ jtwc_io IO042006 19.3000 67.8000 DB 25 1002 -3 1003 130 30 4 278
2006262N19069 2006 70 NI AS MUKDA 2006-09-20 03:00:00 NR 19.3425 67.5925 main 335 327 P_____________ IO042006 19.3425 67.5925 DB 25 1002 -3 1003 130 30 4 285
2006262N19069 2006 70 NI AS MUKDA 2006-09-20 06:00:00 NR 19.4000 67.4000 main 343 343 O_____________ jtwc_io IO042006 19.4000 67.4000 DB 25 1002 -3 1003 130 30 3 288
2006262N19069 2006 70 NI AS MUKDA 2006-09-20 09:00:00 NR 19.4500 67.2425 main 358 350 P_____________ IO042006 19.4500 67.2425 DB 25 1002 -3 1003 130 32 3 290
2006262N19069 2006 70 NI AS MUKDA 2006-09-20 12:00:00 NR 19.5000 67.1000 main 358 357 O_____________ jtwc_io IO042006 19.5000 67.1000 DB 25 1002 -3 1003 130 35 3 291
2006262N19069 2006 70 NI AS MUKDA 2006-09-20 15:00:00 NR 19.5575 66.9425 main 365 365 P_____________ IO042006 19.5575 66.9425 DB 27 1001 -3 1003 140 40 3 290
2006262N19069 2006 70 NI AS MUKDA 2006-09-20 18:00:00 NR 19.6000 66.8000 main 372 372 O_____________ jtwc_io IO042006 19.6000 66.8000 DB 30 1000 -3 1003 150 45 2 282
2006262N19069 2006 70 NI AS MUKDA 2006-09-20 21:00:00 NR 19.6075 66.6925 main 378 378 P_____________ IO042006 19.6075 66.6925 DB 30 1000 -3 1003 150 45 2 270
2006262N19069 2006 70 NI AS MUKDA 2006-09-21 00:00:00 TS 19.6000 66.6000 main 384 384 O_____________ jtwc_io IO042006 19.6000 66.6000 TD 30 1000 -1 1003 150 45 3 263
2006262N19069 2006 70 NI AS MUKDA 2006-09-21 03:00:00 TS 19.5740 66.3940 25 1004 newdelhi main 398 398 P___O_________ IO042006 19.5925 66.4925 TD 30 1000 -1 1003 150 45 19.5000 66.0000 D 25 1004 1.50000 4 3 264
2006262N19069 2006 70 NI AS MUKDA 2006-09-21 06:00:00 TS 19.5667 66.2667 30 1002 newdelhi main 404 404 O___O_________ jtwc_io IO042006 19.6000 66.4000 TD 30 1000 -1 1003 150 45 19.5000 66.0000 DD 30 1002 2.00000 5 2 271
2006262N19069 2006 70 NI AS MUKDA 2006-09-21 09:00:00 TS 19.5771 66.1914 30 1000 newdelhi main 411 411 P___O_________ IO042006 19.6350 66.3350 TD 32 998 -1 1002 150 42 19.5000 66.0000 DD 30 1000 2.00000 5 1 286
2006262N19069 2006 70 NI AS MUKDA 2006-09-21 12:00:00 TS 19.6000 66.1500 30 1000 newdelhi main 411 411 O___O_________ jtwc_io IO042006 19.7000 66.3000 TS 35 997 0 50 50 50 50 1002 150 40 19.5000 66.0000 DD 30 1000 2.00000 5 1 337
2006262N19069 2006 70 NI AS MUKDA 2006-09-21 15:00:00 TS 19.6500 66.1425 30 1000 newdelhi main 411 411 P___O_________ IO042006 19.8000 66.2850 TS 37 995 0 50 50 50 50 1002 142 32 19.5000 66.0000 DD 30 1000 2.00000 5 1 0
2006262N19069 2006 70 NI AS MUKDA 2006-09-21 18:00:00 TS 19.7000 66.1500 30 1000 newdelhi main 403 403 O___O_________ jtwc_io IO042006 19.9000 66.3000 TS 40 994 0 50 50 50 50 1002 135 25 19.5000 66.0000 DD 30 1000 2.00000 5 1 19
2006262N19069 2006 70 NI AS MUKDA 2006-09-21 21:00:00 TS 19.7250 66.1712 30 998 newdelhi main 403 380 P___O_________ IO042006 19.9500 66.3425 TS 42 992 0 45 45 45 45 1002 135 25 19.5000 66.0000 DD 30 998 2.00000 5 3 5
2006262N19069 2006 70 NI AS MUKDA 2006-09-22 00:00:00 TS 20.0000 66.2000 40 996 newdelhi main 380 380 O___O_________ jtwc_io IO042006 20.0000 66.4000 TC 45 991 0 40 40 40 40 1002 135 25 20.0000 66.0000 CS 40 996 2.50000 6 3 9
2006262N19069 2006 70 NI AS MUKDA 2006-09-22 03:00:00 TS 20.0500 66.2250 45 994 newdelhi main 372 372 P___O_________ IO042006 20.1000 66.4500 TC 45 991 0 40 40 40 40 1002 135 25 20.0000 66.0000 CS 45 994 3.00000 6 1 17
2006262N19069 2006 70 NI AS MUKDA 2006-09-22 06:00:00 TS 20.1000 66.2500 45 994 newdelhi main 364 364 O___O_________ jtwc_io IO042006 20.2000 66.5000 TS 45 991 0 40 40 40 40 1002 135 25 20.0000 66.0000 CS 45 994 3.00000 6 1 27
2006262N19069 2006 70 NI AS MUKDA 2006-09-22 09:00:00 TS 20.1287 66.2713 45 994 newdelhi main 364 326 P___O_________ IO042006 20.2575 66.5425 TS 47 989 0 42 42 42 42 1002 132 20 20.0000 66.0000 CS 45 994 3.00000 8 4 43
2006262N19069 2006 70 NI AS MUKDA 2006-09-22 12:00:00 TS 20.4000 66.5500 45 994 newdelhi main 319 319 O___O_________ jtwc_io IO042006 20.3000 66.6000 TS 50 987 0 45 45 45 45 15 15 15 15 1002 130 15 20.5000 66.5000 SCS 45 994 3.00000 10 4 46
2006262N19069 2006 70 NI AS MUKDA 2006-09-22 15:00:00 TS 20.4288 66.6000 45 992 newdelhi main 319 319 P___O_________ IO042006 20.3575 66.7000 TS 50 987 0 50 50 50 50 20 20 20 20 1002 135 15 20.5000 66.5000 SCS 45 992 3.00000 10 1 63
2006262N19069 2006 70 NI AS MUKDA 2006-09-22 18:00:00 TS 20.4500 66.6500 45 990 newdelhi main 303 311 O___O_________ jtwc_io IO042006 20.4000 66.8000 TS 50 987 0 55 55 55 55 25 25 25 25 1002 140 15 20.5000 66.5000 SCS 45 990 3.00000 10 1 72
2006262N19069 2006 70 NI AS MUKDA 2006-09-22 21:00:00 TS 20.4500 66.6750 45 988 newdelhi main 311 273 P___O_________ IO042006 20.4000 66.8500 TS 50 987 0 55 55 57 55 25 25 25 25 1002 140 15 20.5000 66.5000 SCS 45 988 3.00000 10 4 48
2006262N19069 2006 70 NI AS MUKDA 2006-09-23 00:00:00 TS 20.7000 66.9500 45 988 newdelhi main 265 265 O___O_________ jtwc_io IO042006 20.4000 66.9000 TS 50 987 0 55 55 60 55 25 25 25 25 1002 140 15 21.0000 67.0000 SCS 45 988 3.00000 10 4 47
2006262N19069 2006 70 NI AS MUKDA 2006-09-23 03:00:00 TS 20.7325 67.0000 45 988 newdelhi main 265 258 P___O_________ IO042006 20.4650 67.0000 TS 52 985 0 60 60 65 62 25 25 25 25 1002 140 15 21.0000 67.0000 SCS 45 988 3.00000 10 1 63
2006262N19069 2006 70 NI AS MUKDA 2006-09-23 06:00:00 TS 20.7500 67.0500 45 988 newdelhi main 250 250 O___O_________ jtwc_io IO042006 20.5000 67.1000 TC 55 984 0 65 65 70 70 25 25 25 25 1002 140 15 21.0000 67.0000 SCS 45 988 3.00000 10 1 108
2006262N19069 2006 70 NI AS MUKDA 2006-09-23 09:00:00 TS 20.7075 67.0863 45 988 newdelhi main 258 258 P___O_________ IO042006 20.4150 67.1725 TC 50 987 0 65 65 70 70 12 12 12 12 1002 140 15 21.0000 67.0000 SCS 45 988 3.00000 10 1 163
2006262N19069 2006 70 NI AS MUKDA 2006-09-23 12:00:00 TS 20.6500 67.1000 50 988 newdelhi main 258 266 O___O_________ jtwc_io IO042006 20.3000 67.2000 TC 45 991 0 65 65 70 70 1002 140 15 21.0000 67.0000 SCS 50 988 3.00000 10 1 0
2006262N19069 2006 70 NI AS MUKDA 2006-09-23 15:00:00 TS 20.6250 67.0825 55 990 newdelhi main 266 266 P___O_________ IO042006 20.2500 67.1650 TC 40 994 0 65 62 67 62 1002 135 17 21.0000 67.0000 SCS 55 990 3.50000 15 1 223
2006262N19069 2006 70 NI AS MUKDA 2006-09-23 18:00:00 TS 20.6000 67.0500 50 992 newdelhi main 266 266 O___O_________ jtwc_io IO042006 20.2000 67.1000 TS 35 997 0 65 60 65 55 1003 130 20 21.0000 67.0000 SCS 50 992 3.50000 15 1 216
2006262N19069 2006 70 NI AS MUKDA 2006-09-23 21:00:00 TS 20.5537 67.0250 45 994 newdelhi main 273 273 P___O_________ IO042006 20.1075 67.0500 TS 32 998 -1 1003 130 22 21.0000 67.0000 CS 45 994 3.00000 10 1 197
2006262N19069 2006 70 NI AS MUKDA 2006-09-24 00:00:00 TS 20.5000 67.0000 40 994 newdelhi main 281 281 O___O_________ jtwc_io IO042006 20.0000 67.0000 TD 30 1000 -1 1003 130 25 21.0000 67.0000 CS 40 994 3.00000 10 1 209
2006262N19069 2006 70 NI AS MUKDA 2006-09-24 03:00:00 TS 20.4500 66.9713 35 996 newdelhi main 281 281 P___O_________ IO042006 19.9000 66.9425 TD 30 1000 -1 1003 140 30 21.0000 67.0000 CS 35 996 2.00000 8 2 197
2006262N19069 2006 70 NI AS MUKDA 2006-09-24 06:00:00 TS 20.3143 66.9429 30 1000 newdelhi main 304 304 O___O_________ jtwc_io IO042006 19.8000 66.9000 TD 30 1000 -1 1004 150 35 21.0000 67.0000 DD 30 1000 2.00000 5 3 187
2006262N19069 2006 70 NI AS MUKDA 2006-09-24 09:00:00 TS 20.1283 66.9333 30 1002 newdelhi main 321 321 P___O_________ IO042006 19.6925 66.9000 TD 30 1000 -1 1004 150 35 21.0000 67.0000 DD 30 1002 2.00000 5 4 0
2006262N19069 2006 70 NI AS MUKDA 2006-09-24 12:00:00 TS 19.8800 66.9200 25 1004 newdelhi main 339 339 O___O_________ jtwc_io IO042006 19.6000 66.9000 TD 30 1000 -1 1004 150 35 21.0000 67.0000 D 25 1004 1.50000 4 6 187
2006262N19069 2006 70 NI AS MUKDA 2006-09-24 15:00:00 TS 19.5350 66.8650 main 373 373 P_____________ IO042006 19.5350 66.8650 TD 30 1000 -1 1004 150 40 4 196
2006262N19069 2006 70 NI AS MUKDA 2006-09-24 18:00:00 TS 19.5000 66.8000 main 380 380 O_____________ jtwc_io IO042006 19.5000 66.8000 TD 30 1000 -1 1005 150 45 2 249
2006262N19069 2006 70 NI AS MUKDA 2006-09-24 21:00:00 TS 19.4775 66.7000 main 387 387 P_____________ IO042006 19.4775 66.7000 TD 30 1000 -1 2 270
2006262N19069 2006 70 NI AS MUKDA 2006-09-25 00:00:00 TS 19.5000 66.6000 main 393 384 O_____________ jtwc_io IO042006 19.5000 66.6000 TD 30 1000 -1 2 309
2006262N19069 2006 70 NI AS MUKDA 2006-09-25 03:00:00 TS 19.5925 66.5500 main 384 382 P_____________ IO042006 19.5925 66.5500 TD 30 1000 -1 2 333
2006262N19069 2006 70 NI AS MUKDA 2006-09-25 06:00:00 TS 19.7000 66.5000 main 382 381 O_____________ jtwc_io IO042006 19.7000 66.5000 TD 30 1000 -1 2 320
2006262N19069 2006 70 NI AS MUKDA 2006-09-25 09:00:00 TS 19.7575 66.4000 main 381 381 P_____________ IO042006 19.7575 66.4000 TD 30 1000 -1 2 298
2006262N19069 2006 70 NI AS MUKDA 2006-09-25 12:00:00 TS 19.8000 66.3000 main 388 388 O_____________ jtwc_io IO042006 19.8000 66.3000 TD 30 1000 -1 2 302
2006262N19069 2006 70 NI AS MUKDA 2006-09-25 15:00:00 TS 19.8500 66.2425 main 395 387 P_____________ IO042006 19.8500 66.2425 TD 27 1001 -1 1 317
2006262N19069 2006 70 NI AS MUKDA 2006-09-25 18:00:00 NR 19.9000 66.2000 main 387 387 O_____________ jtwc_io IO042006 19.9000 66.2000 DB 25 1002 -3 1 326
2006262N19069 2006 70 NI AS MUKDA 2006-09-25 21:00:00 NR 19.9425 66.1650 main 387 380 P_____________ IO042006 19.9425 66.1650 DB 25 1002 -3 1 317
2006262N19069 2006 70 NI AS MUKDA 2006-09-26 00:00:00 NR 20.0000 66.1000 main 387 387 O_____________ jtwc_io IO042006 20.0000 66.1000 DB 25 1002 -3 2 311
2006262N19069 2006 70 NI AS MUKDA 2006-09-26 03:00:00 NR 20.1000 65.9725 main 388 388 P_____________ IO042006 20.1000 65.9725 DB 25 1002 -3 3 305
2006262N19069 2006 70 NI AS MUKDA 2006-09-26 06:00:00 NR 20.2000 65.8000 main 397 397 O_____________ jtwc_io IO042006 20.2000 65.8000 DB 25 1002 -3 4 295
2006262N19069 2006 70 NI AS MUKDA 2006-09-26 09:00:00 NR 20.2625 65.6050 main 408 408 P_____________ IO042006 20.2625 65.6050 DB 25 1002 -3 4 285
2006262N19069 2006 70 NI AS MUKDA 2006-09-26 12:00:00 NR 20.3000 65.4000 main 425 O_____________ jtwc_io IO042006 20.3000 65.4000 DB 25 1002 -3 4 281

About IBTrACS Database

This database is a web-friendly format of International Best Track Archive for Climate Stewardship (IBTrACS), a global best track data archive curated by NOAA dating back to 1842.

Updated: 2021-11-26